Time;durP1;ratioP1;P1;durP2;ratioP2;P2;SDS_P1;SDS_P2;PMS_P1;PMS_P2;Temp;Humidity;BMP_temperature;BMP_pressure;BME280_temperature;BME280_humidity;BME280_pressure;Samples;Min_cycle;Max_cycle;Signal;HPM_P1;HPM_P2
2023/02/01 00:00:08;;;;;;;1.40;1.27;;;5.10;98.00;;;;;;5093583;28;20498;-66
2023/02/01 00:02:39;;;;;;;1.47;1.40;;;5.10;98.00;;;;;;5093553;28;20457;-66
2023/02/01 00:05:09;;;;;;;2.07;1.47;;;5.10;98.00;;;;;;5093402;28;20488;-66
2023/02/01 00:07:36;;;;;;;1.87;1.30;;;5.10;98.00;;;;;;5093352;28;20460;-66
2023/02/01 00:10:05;;;;;;;2.17;1.53;;;5.10;98.00;;;;;;5093245;28;20872;-66
2023/02/01 00:12:33;;;;;;;1.47;1.40;;;5.10;98.00;;;;;;5093498;28;20497;-66
2023/02/01 00:15:00;;;;;;;2.80;1.83;;;5.10;98.00;;;;;;5093396;28;21021;-67
2023/02/01 00:17:28;;;;;;;3.33;1.60;;;5.10;98.00;;;;;;5092807;28;20487;-67
2023/02/01 00:19:55;;;;;;;1.30;1.30;;;5.00;98.00;;;;;;5091427;28;20468;-66
2023/02/01 00:22:24;;;;;;;1.30;1.30;;;5.00;98.00;;;;;;5093240;28;20447;-66
2023/02/01 00:24:52;;;;;;;2.03;1.63;;;5.00;98.00;;;;;;5092935;28;20470;-67
2023/02/01 00:27:21;;;;;;;1.93;1.10;;;5.00;98.00;;;;;;5091706;28;20466;-67
2023/02/01 00:29:48;;;;;;;6.37;1.97;;;5.00;98.00;;;;;;5091631;28;20468;-66
2023/02/01 00:32:16;;;;;;;2.10;1.33;;;5.10;98.00;;;;;;5092776;28;20453;-67
2023/02/01 00:34:44;;;;;;;1.40;1.20;;;5.00;98.00;;;;;;5092756;28;20460;-66
2023/02/01 00:37:12;;;;;;;1.27;1.23;;;5.00;98.00;;;;;;5092579;28;20458;-66
2023/02/01 00:39:40;;;;;;;2.07;1.30;;;5.00;98.00;;;;;;5092509;28;20461;-66
2023/02/01 00:42:08;;;;;;;1.53;1.33;;;5.00;98.00;;;;;;5092757;28;20467;-67
2023/02/01 00:44:35;;;;;;;1.10;1.10;;;5.00;98.00;;;;;;5092539;28;20579;-66
2023/02/01 00:47:02;;;;;;;1.43;1.20;;;5.00;98.00;;;;;;5091524;28;20460;-67
2023/02/01 00:49:30;;;;;;;1.30;1.10;;;5.00;98.00;;;;;;5092528;28;20975;-66
2023/02/01 00:51:57;;;;;;;1.90;1.40;;;4.90;98.00;;;;;;5092554;28;20458;-67
2023/02/01 00:54:25;;;;;;;1.93;1.47;;;4.90;98.00;;;;;;5092532;28;20454;-66
2023/02/01 00:56:53;;;;;;;1.40;1.20;;;4.90;98.00;;;;;;5092514;28;20854;-66
2023/02/01 00:59:20;;;;;;;3.33;1.60;;;4.90;98.00;;;;;;5092409;28;20485;-66
2023/02/01 01:01:47;;;;;;;1.10;1.00;;;4.90;98.00;;;;;;5092564;28;20896;-67
2023/02/01 01:04:14;;;;;;;2.23;1.40;;;4.90;98.00;;;;;;5092472;28;20933;-67
2023/02/01 01:06:42;;;;;;;1.70;1.30;;;4.90;98.00;;;;;;5092318;28;21168;-66
2023/02/01 01:09:09;;;;;;;2.27;1.37;;;4.90;98.00;;;;;;5092426;28;20459;-66
2023/02/01 01:11:39;;;;;;;1.43;1.40;;;4.90;98.00;;;;;;5092261;28;20514;-66
2023/02/01 01:14:09;;;;;;;1.80;1.43;;;4.90;98.00;;;;;;5092518;28;20474;-67
2023/02/01 01:16:38;;;;;;;1.97;1.20;;;4.90;98.00;;;;;;5092311;28;20453;-66
2023/02/01 01:19:05;;;;;;;1.50;1.27;;;4.90;98.00;;;;;;5092525;28;20486;-66
2023/02/01 01:21:32;;;;;;;1.30;1.10;;;4.90;98.00;;;;;;5091083;28;20462;-66
2023/02/01 01:23:59;;;;;;;2.13;1.43;;;5.00;98.00;;;;;;5092405;28;20461;-66
2023/02/01 01:26:28;;;;;;;3.63;1.47;;;5.00;98.00;;;;;;5091582;28;20458;-66
2023/02/01 01:28:56;;;;;;;1.40;1.10;;;5.00;98.00;;;;;;5091713;28;20956;-66
2023/02/01 01:31:27;;;;;;;2.57;1.47;;;5.00;98.00;;;;;;5091083;28;20441;-66
2023/02/01 01:33:58;;;;;;;1.20;1.10;;;5.00;98.00;;;;;;5092006;28;20469;-66
2023/02/01 01:36:26;;;;;;;1.73;1.40;;;4.90;98.00;;;;;;5091887;28;20466;-66
2023/02/01 01:38:54;;;;;;;1.50;1.20;;;5.00;98.00;;;;;;5091628;28;20502;-66
2023/02/01 01:41:23;;;;;;;1.50;1.37;;;5.00;98.00;;;;;;5091995;28;20956;-66
2023/02/01 01:43:56;;;;;;;1.10;1.00;;;5.00;98.00;;;;;;5091784;28;20592;-66
2023/02/01 01:46:26;;;;;;;2.53;1.50;;;5.10;98.00;;;;;;5091785;28;20900;-66
2023/02/01 01:49:01;;;;;;;1.10;1.00;;;5.00;98.00;;;;;;5090679;28;20471;-66
2023/02/01 01:51:33;;;;;;;1.27;1.13;;;5.00;98.00;;;;;;5091820;28;20456;-66
2023/02/01 01:54:06;;;;;;;2.23;1.43;;;4.90;98.00;;;;;;5092107;28;20462;-66
2023/02/01 01:56:35;;;;;;;2.00;1.43;;;4.90;98.00;;;;;;5091708;28;20462;-66
2023/02/01 01:59:03;;;;;;;1.20;1.10;;;4.90;98.00;;;;;;5091656;28;20490;-66
2023/02/01 02:01:32;;;;;;;1.40;1.10;;;4.90;98.00;;;;;;5091716;28;20506;-67
2023/02/01 02:04:00;;;;;;;1.97;1.40;;;4.90;98.00;;;;;;5091744;28;20534;-67
2023/02/01 02:06:38;;;;;;;1.60;1.10;;;4.90;98.00;;;;;;5091467;28;20457;-66
2023/02/01 02:09:05;;;;;;;1.40;1.20;;;4.90;98.00;;;;;;5091922;28;20485;-66
2023/02/01 02:11:32;;;;;;;1.20;1.10;;;4.90;98.00;;;;;;5090460;28;20464;-66
2023/02/01 02:14:00;;;;;;;1.30;1.30;;;4.90;98.00;;;;;;5091742;28;20880;-67
2023/02/01 02:17:00;;;;;;;1.73;1.20;;;4.90;98.00;;;;;;5091684;28;20458;-66
2023/02/01 02:20:09;;;;;;;1.10;1.10;;;5.00;98.00;;;;;;5091783;28;20523;-66
2023/02/01 02:23:26;;;;;;;1.47;1.30;;;5.00;98.00;;;;;;5091563;28;20463;-67
2023/02/01 02:26:31;;;;;;;2.43;1.40;;;5.00;98.00;;;;;;5091219;28;20959;-66
2023/02/01 02:29:27;;;;;;;1.60;1.30;;;5.00;98.00;;;;;;5086317;28;20462;-66
2023/02/01 02:32:09;;;;;;;1.30;1.10;;;5.00;98.00;;;;;;5091332;28;20457;-66
2023/02/01 02:34:42;;;;;;;1.30;1.17;;;5.10;98.00;;;;;;5090855;28;20543;-66
2023/02/01 02:37:17;;;;;;;2.37;1.30;;;5.10;98.00;;;;;;5091363;28;20466;-66
2023/02/01 02:39:51;;;;;;;1.40;1.30;;;5.00;98.00;;;;;;5091170;28;20971;-66
2023/02/01 02:48:17;;;;;;;1.67;1.40;;;5.00;98.00;;;;;;5095034;28;20461;-66
2023/02/01 03:04:56;;;;;;;2.40;1.30;;;5.00;98.00;;;;;;5093710;28;20493;-66
2023/02/01 03:07:54;;;;;;;2.90;1.77;;;5.00;98.00;;;;;;5094607;28;20506;-66
2023/02/01 03:10:30;;;;;;;1.87;1.60;;;5.10;98.00;;;;;;5094443;28;20457;-66
2023/02/01 03:13:04;;;;;;;1.73;1.50;;;5.10;98.00;;;;;;5077383;28;20474;-66
2023/02/01 03:15:39;;;;;;;1.30;1.20;;;5.00;98.00;;;;;;5094607;28;20474;-67
2023/02/01 03:18:12;;;;;;;1.60;1.10;;;5.10;98.00;;;;;;5094152;28;20470;-66
2023/02/01 03:20:44;;;;;;;1.30;1.10;;;5.10;98.00;;;;;;5094656;28;20464;-66
2023/02/01 03:23:15;;;;;;;1.50;1.33;;;5.10;98.00;;;;;;5094543;28;20459;-66
2023/02/01 03:25:43;;;;;;;2.30;1.40;;;5.10;98.00;;;;;;5092931;28;20468;-66
2023/02/01 03:28:12;;;;;;;1.30;1.30;;;5.10;98.00;;;;;;5093023;28;20460;-66
2023/02/01 03:30:43;;;;;;;1.70;1.63;;;5.10;98.00;;;;;;5092808;28;20458;-66
2023/02/01 03:33:21;;;;;;;1.30;1.00;;;5.10;98.00;;;;;;5094007;28;20535;-66
2023/02/01 03:35:58;;;;;;;1.60;1.60;;;5.20;98.00;;;;;;5093877;28;20511;-65
2023/02/01 03:38:32;;;;;;;1.43;1.30;;;5.20;98.00;;;;;;5093948;28;20478;-67
2023/02/01 03:41:06;;;;;;;2.17;1.77;;;5.20;98.00;;;;;;5092606;28;20518;-66
2023/02/01 03:43:40;;;;;;;2.17;1.50;;;5.20;98.00;;;;;;5093888;28;21062;-66
2023/02/01 03:46:14;;;;;;;2.00;1.23;;;5.20;98.00;;;;;;5093638;28;20478;-67
2023/02/01 03:48:42;;;;;;;2.30;1.50;;;5.20;98.00;;;;;;5093902;28;20460;-66
2023/02/01 03:51:10;;;;;;;2.87;1.80;;;5.20;98.00;;;;;;5093897;28;20480;-66
2023/02/01 03:53:41;;;;;;;2.80;1.50;;;5.20;98.00;;;;;;5093799;28;20468;-66
2023/02/01 03:56:11;;;;;;;2.90;1.70;;;5.20;98.00;;;;;;5093518;28;20469;-66
2023/02/01 03:58:39;;;;;;;2.00;1.57;;;5.20;98.00;;;;;;5093557;28;21074;-66
2023/02/01 04:01:08;;;;;;;1.60;1.50;;;5.20;98.00;;;;;;5093636;28;20459;-65
2023/02/01 04:03:35;;;;;;;1.60;1.53;;;5.20;98.00;;;;;;5092375;28;20807;-66
2023/02/01 04:06:02;;;;;;;1.50;1.40;;;5.30;98.00;;;;;;5075699;28;20519;-66
2023/02/01 04:08:29;;;;;;;2.13;1.80;;;5.30;98.00;;;;;;5093542;28;20462;-65
2023/02/01 04:10:58;;;;;;;1.60;1.23;;;5.30;98.00;;;;;;5092131;28;20467;-66
2023/02/01 04:13:25;;;;;;;1.30;1.20;;;5.30;98.00;;;;;;5093523;28;20454;-65
2023/02/01 04:15:52;;;;;;;1.93;1.23;;;5.30;98.00;;;;;;5093294;28;20478;-67
2023/02/01 04:18:19;;;;;;;2.70;1.20;;;5.10;98.00;;;;;;5092365;28;20456;-66
2023/02/01 04:20:47;;;;;;;1.63;1.20;;;5.10;98.00;;;;;;5093151;28;20515;-65
2023/02/01 04:23:16;;;;;;;1.57;1.40;;;5.10;98.00;;;;;;5092123;28;20470;-66
2023/02/01 04:25:43;;;;;;;1.90;1.30;;;5.10;98.00;;;;;;5091674;28;20462;-66
2023/02/01 04:28:11;;;;;;;2.60;1.70;;;5.10;98.00;;;;;;5091870;28;20460;-66
2023/02/01 04:30:38;;;;;;;1.40;1.30;;;5.10;98.00;;;;;;5092672;28;20465;-66
2023/02/01 04:33:06;;;;;;;1.40;1.33;;;5.20;98.00;;;;;;5091724;28;20460;-67
2023/02/01 04:35:33;;;;;;;1.53;1.40;;;5.20;98.00;;;;;;5092643;28;20458;-66
2023/02/01 04:38:00;;;;;;;2.10;1.47;;;5.20;98.00;;;;;;5092768;28;20454;-67
2023/02/01 04:40:28;;;;;;;1.93;1.30;;;5.30;98.00;;;;;;5091521;28;20483;-66
2023/02/01 04:42:55;;;;;;;2.30;1.67;;;5.30;98.00;;;;;;5092459;28;20469;-66
2023/02/01 04:45:23;;;;;;;1.67;1.43;;;5.20;98.00;;;;;;5092602;28;20878;-66
2023/02/01 04:47:50;;;;;;;1.50;1.50;;;5.20;98.00;;;;;;5092499;28;20474;-66
2023/02/01 04:50:17;;;;;;;2.00;1.50;;;5.20;98.00;;;;;;5092591;28;20464;-65
2023/02/01 04:52:46;;;;;;;4.00;1.80;;;5.20;98.00;;;;;;5092540;28;20477;-66
2023/02/01 04:55:14;;;;;;;1.40;1.20;;;5.20;98.00;;;;;;5092412;28;20550;-66
2023/02/01 04:57:41;;;;;;;1.70;1.40;;;5.20;98.00;;;;;;5092542;28;20502;-66
2023/02/01 05:00:10;;;;;;;3.47;2.10;;;5.20;98.00;;;;;;5092464;28;20487;-66
2023/02/01 05:02:39;;;;;;;1.60;1.53;;;5.20;98.00;;;;;;5092318;28;20518;-66
2023/02/01 05:05:07;;;;;;;2.47;1.40;;;5.20;98.00;;;;;;5091934;28;20462;-66
2023/02/01 05:07:34;;;;;;;1.30;1.20;;;5.20;98.00;;;;;;5091197;28;20462;-66
2023/02/01 05:10:01;;;;;;;2.40;1.27;;;5.30;98.00;;;;;;5092031;28;20450;-66
2023/02/01 05:15:12;;;;;;;1.67;1.43;;;5.20;98.00;;;;;;5092284;28;20449;-66
2023/02/01 05:17:41;;;;;;;2.10;1.30;;;5.30;98.00;;;;;;5092466;28;20455;-66
2023/02/01 05:20:10;;;;;;;1.20;1.20;;;5.30;98.00;;;;;;5092394;28;20699;-66
2023/02/01 05:22:37;;;;;;;1.50;1.40;;;5.30;98.00;;;;;;5074323;28;20575;-67
2023/02/01 05:25:05;;;;;;;2.40;1.50;;;5.30;98.00;;;;;;5092089;28;20601;-66
2023/02/01 05:27:32;;;;;;;1.53;1.30;;;5.30;98.00;;;;;;5092096;28;20892;-66
2023/02/01 05:29:59;;;;;;;1.37;1.30;;;5.30;98.00;;;;;;5091694;28;20469;-65
2023/02/01 05:32:26;;;;;;;2.03;1.43;;;5.30;98.00;;;;;;5092007;28;20457;-66
2023/02/01 05:34:56;;;;;;;5.80;1.30;;;5.30;98.00;;;;;;5091742;28;20508;-66
2023/02/01 05:37:23;;;;;;;1.30;1.20;;;5.30;98.00;;;;;;5091702;28;20470;-66
2023/02/01 05:39:50;;;;;;;2.10;1.27;;;5.40;98.00;;;;;;5091834;28;20487;-66
2023/02/01 05:42:17;;;;;;;1.20;1.20;;;5.40;98.00;;;;;;5091736;28;20535;-66
2023/02/01 05:44:44;;;;;;;1.60;1.20;;;5.40;98.00;;;;;;5091687;28;20477;-67
2023/02/01 05:47:12;;;;;;;1.60;1.23;;;5.40;98.00;;;;;;5091792;28;20527;-66
2023/02/01 05:49:39;;;;;;;1.53;1.43;;;5.40;98.00;;;;;;5091804;28;20456;-66
2023/02/01 05:52:07;;;;;;;1.60;1.27;;;5.50;98.00;;;;;;5091808;28;20462;-66
2023/02/01 05:54:35;;;;;;;2.70;1.33;;;5.50;98.00;;;;;;5091859;28;20491;-66
2023/02/01 05:57:04;;;;;;;3.80;1.53;;;5.50;98.00;;;;;;5090600;28;20517;-66
2023/02/01 05:59:31;;;;;;;1.73;1.33;;;5.40;98.00;;;;;;5091728;28;20504;-66
2023/02/01 06:01:59;;;;;;;1.97;1.60;;;5.40;98.00;;;;;;5090642;28;20473;-67
2023/02/01 06:04:26;;;;;;;1.30;1.20;;;5.50;98.00;;;;;;5091958;28;20460;-66
2023/02/01 06:06:53;;;;;;;1.40;1.30;;;5.40;98.00;;;;;;5090464;28;20459;-66
2023/02/01 06:09:22;;;;;;;1.47;1.30;;;5.40;98.00;;;;;;5091765;28;20947;-66
2023/02/01 06:11:49;;;;;;;1.50;1.27;;;5.40;98.00;;;;;;5091739;28;20476;-66
2023/02/01 06:14:16;;;;;;;1.30;1.20;;;5.30;98.00;;;;;;5091548;28;20461;-66
2023/02/01 06:16:45;;;;;;;1.30;1.10;;;5.40;98.00;;;;;;5090323;28;20474;-66
2023/02/01 06:19:12;;;;;;;1.43;1.37;;;5.30;98.00;;;;;;5095318;28;20537;-66
2023/02/01 06:21:39;;;;;;;1.73;1.57;;;5.30;98.00;;;;;;5095629;28;20469;-66
2023/02/01 06:24:07;;;;;;;1.83;1.70;;;5.30;98.00;;;;;;5094219;28;20459;-66
2023/02/01 06:26:36;;;;;;;2.57;1.30;;;5.30;98.00;;;;;;5095531;28;20458;-66
2023/02/01 06:29:03;;;;;;;2.60;1.73;;;5.30;98.00;;;;;;5077248;28;20455;-66
2023/02/01 06:31:31;;;;;;;2.13;1.70;;;5.20;98.00;;;;;;5095355;28;20805;-67
2023/02/01 06:33:58;;;;;;;14.23;1.67;;;5.20;98.00;;;;;;5095292;28;20946;-66
2023/02/01 06:36:26;;;;;;;1.20;1.20;;;5.10;98.00;;;;;;5095022;28;20458;-66
2023/02/01 06:38:54;;;;;;;1.43;1.33;;;5.10;98.00;;;;;;5095157;28;20453;-66
2023/02/01 06:41:22;;;;;;;2.90;1.37;;;5.10;98.00;;;;;;5095061;28;20464;-65
2023/02/01 06:43:50;;;;;;;2.27;1.17;;;5.10;98.00;;;;;;5095000;28;20812;-66
2023/02/01 06:46:18;;;;;;;1.20;1.10;;;5.10;98.00;;;;;;5094933;28;20475;-66
2023/02/01 06:48:46;;;;;;;1.73;1.50;;;5.10;98.00;;;;;;5093621;28;20450;-66
2023/02/01 06:51:22;;;;;;;2.03;1.53;;;5.10;98.00;;;;;;5094781;28;20512;-66
2023/02/01 06:53:49;;;;;;;1.60;1.60;;;5.10;98.00;;;;;;5094725;28;20496;-66
2023/02/01 06:56:18;;;;;;;1.70;1.30;;;5.10;98.00;;;;;;5094907;28;20463;-66
2023/02/01 06:58:45;;;;;;;1.93;1.40;;;5.10;98.00;;;;;;5094775;28;20454;-66
2023/02/01 07:01:13;;;;;;;1.70;1.47;;;5.10;98.00;;;;;;5094718;28;20859;-66
2023/02/01 07:03:41;;;;;;;1.87;1.47;;;5.10;98.00;;;;;;5094673;28;20472;-67
2023/02/01 07:06:09;;;;;;;1.30;1.30;;;5.10;98.00;;;;;;5094666;28;20526;-66
2023/02/01 07:08:38;;;;;;;2.80;1.60;;;5.10;98.00;;;;;;5094822;28;20896;-67
2023/02/01 07:11:07;;;;;;;1.57;1.20;;;5.20;98.00;;;;;;5094593;28;20461;-65
2023/02/01 07:13:34;;;;;;;1.20;1.00;;;5.20;98.00;;;;;;5094241;28;20949;-66
2023/02/01 07:16:03;;;;;;;1.37;1.27;;;5.20;98.00;;;;;;5094591;28;20454;-66
2023/02/01 07:18:32;;;;;;;1.77;1.60;;;5.20;98.00;;;;;;5092638;28;20466;-66
2023/02/01 07:20:59;;;;;;;1.30;1.20;;;5.20;98.00;;;;;;5094312;28;20505;-66
2023/02/01 07:23:27;;;;;;;2.30;1.40;;;5.20;98.00;;;;;;5094331;28;20454;-66
2023/02/01 07:25:55;;;;;;;1.30;1.20;;;5.20;98.00;;;;;;5094139;28;20455;-66
2023/02/01 07:28:26;;;;;;;1.33;1.27;;;5.20;98.00;;;;;;5093975;28;20464;-66
2023/02/01 07:30:53;;;;;;;1.63;1.27;;;5.30;98.00;;;;;;5094204;28;20465;-66
2023/02/01 07:33:21;;;;;;;1.30;1.10;;;5.30;98.00;;;;;;5094182;28;20463;-66
2023/02/01 07:35:50;;;;;;;1.57;1.23;;;5.30;98.00;;;;;;5092635;28;20873;-66
2023/02/01 07:38:19;;;;;;;1.47;1.30;;;5.30;98.00;;;;;;5094131;28;20464;-66
2023/02/01 07:40:46;;;;;;;1.50;1.20;;;5.30;98.00;;;;;;5093666;28;20487;-66
2023/02/01 07:43:13;;;;;;;1.20;1.07;;;5.30;98.00;;;;;;5092718;28;20461;-65
2023/02/01 07:45:41;;;;;;;2.17;1.47;;;5.30;98.00;;;;;;5093792;28;20462;-66
2023/02/01 07:48:08;;;;;;;1.40;1.30;;;5.30;98.00;;;;;;5092467;28;20471;-66
2023/02/01 07:50:35;;;;;;;2.53;1.50;;;5.30;98.00;;;;;;5093788;28;20518;-66
2023/02/01 07:53:04;;;;;;;2.60;1.40;;;5.30;98.00;;;;;;5092716;28;20448;-66
2023/02/01 07:55:34;;;;;;;2.70;1.47;;;5.30;98.00;;;;;;5093574;28;20462;-67
2023/02/01 07:58:01;;;;;;;1.40;1.23;;;5.30;98.00;;;;;;5093516;28;20454;-71
2023/02/01 08:03:13;;;;;;;1.50;1.30;;;5.30;98.00;;;;;;5092944;28;20526;-71
2023/02/01 08:05:41;;;;;;;2.23;1.57;;;5.30;98.00;;;;;;5092808;28;20455;-71
2023/02/01 08:08:10;;;;;;;2.23;1.77;;;5.40;98.00;;;;;;5092773;28;20461;-71
2023/02/01 08:10:37;;;;;;;2.43;1.47;;;5.40;98.00;;;;;;5092708;28;20796;-71
2023/02/01 08:13:04;;;;;;;1.17;1.17;;;5.40;98.00;;;;;;5092916;28;20757;-71
2023/02/01 08:15:31;;;;;;;3.60;1.83;;;5.40;98.00;;;;;;5092896;28;20932;-71
2023/02/01 08:17:59;;;;;;;2.13;1.50;;;5.40;98.00;;;;;;5092918;28;20460;-71
2023/02/01 08:20:27;;;;;;;1.20;1.20;;;5.40;98.00;;;;;;5092608;28;20485;-71
2023/02/01 08:22:54;;;;;;;3.07;1.70;;;5.50;98.00;;;;;;5092817;28;20454;-71
2023/02/01 08:25:23;;;;;;;1.93;1.40;;;5.50;98.00;;;;;;5092499;28;20466;-71
2023/02/01 08:27:51;;;;;;;2.30;1.77;;;5.40;98.00;;;;;;5092481;28;20466;-71
2023/02/01 08:30:18;;;;;;;1.30;1.27;;;5.50;98.00;;;;;;5092462;28;20459;-71
2023/02/01 08:32:46;;;;;;;1.80;1.40;;;5.50;98.00;;;;;;5092295;28;20860;-71
2023/02/01 08:35:13;;;;;;;3.30;1.67;;;5.50;98.00;;;;;;5092099;28;20508;-71
2023/02/01 08:37:40;;;;;;;1.40;1.10;;;5.60;98.00;;;;;;5092334;28;20469;-71
2023/02/01 08:40:09;;;;;;;1.40;1.40;;;5.60;98.00;;;;;;5091357;28;20494;-71
2023/02/01 08:42:53;;;;;;;1.37;1.30;;;5.60;98.00;;;;;;5092167;28;20462;-71
2023/02/01 08:45:23;;;;;;;1.40;1.20;;;5.70;98.00;;;;;;5092003;28;20469;-71
2023/02/01 08:47:50;;;;;;;1.50;1.30;;;5.70;98.00;;;;;;5091992;28;20476;-71
2023/02/01 08:50:18;;;;;;;2.10;1.33;;;5.80;98.00;;;;;;5092077;28;20453;-71
2023/02/01 08:52:46;;;;;;;2.10;1.30;;;5.70;98.00;;;;;;5091962;28;20456;-71
2023/02/01 08:55:13;;;;;;;1.47;1.20;;;5.80;98.00;;;;;;5091753;28;20453;-71
2023/02/01 08:57:44;;;;;;;1.57;1.30;;;5.80;98.00;;;;;;5091933;28;20458;-71
2023/02/01 09:00:15;;;;;;;3.63;1.73;;;5.80;98.00;;;;;;5091702;28;20981;-71
2023/02/01 09:02:42;;;;;;;1.20;1.17;;;5.80;98.00;;;;;;5090662;28;20545;-71
2023/02/01 09:05:10;;;;;;;3.67;1.60;;;5.90;98.00;;;;;;5091712;28;20960;-71
2023/02/01 09:07:38;;;;;;;1.20;1.20;;;5.90;98.00;;;;;;5091994;28;20876;-71
2023/02/01 09:10:05;;;;;;;1.30;1.20;;;5.80;98.00;;;;;;5091747;28;20466;-71
2023/02/01 09:12:34;;;;;;;2.13;1.60;;;5.80;98.00;;;;;;5090668;28;20458;-66
2023/02/01 09:15:06;;;;;;;1.47;1.37;;;5.80;98.00;;;;;;5092038;28;20969;-69
2023/02/01 09:17:34;;;;;;;1.93;1.43;;;6.00;98.00;;;;;;5086563;28;20580;-68
2023/02/01 09:20:01;;;;;;;2.23;1.60;;;6.00;98.00;;;;;;5091006;28;20456;-68
2023/02/01 09:22:28;;;;;;;1.77;1.10;;;6.00;98.00;;;;;;5091303;28;20462;-68
2023/02/01 09:24:55;;;;;;;1.40;1.30;;;5.90;98.00;;;;;;5091218;28;20980;-68
2023/02/01 09:27:23;;;;;;;1.57;1.30;;;5.90;98.00;;;;;;5091159;28;20455;-69
2023/02/01 09:29:52;;;;;;;1.30;1.23;;;5.90;98.00;;;;;;5089755;28;20528;-69
2023/02/01 09:32:21;;;;;;;2.43;1.63;;;5.90;98.00;;;;;;5091279;28;20453;-68
2023/02/01 09:34:49;;;;;;;1.60;1.50;;;5.90;98.00;;;;;;5091073;28;20459;-68
2023/02/01 09:37:16;;;;;;;1.90;1.37;;;5.90;98.00;;;;;;5091262;28;20455;-68
2023/02/01 09:39:43;;;;;;;1.73;1.30;;;5.90;98.00;;;;;;5090974;28;20467;-68
2023/02/01 09:42:22;;;;;;;1.43;1.40;;;5.90;98.00;;;;;;5091025;28;20538;-68
2023/02/01 09:45:07;;;;;;;1.83;1.37;;;5.90;98.00;;;;;;5089864;28;20554;-69
2023/02/01 09:47:41;;;;;;;1.20;1.10;;;5.80;98.00;;;;;;5090787;28;20972;-70
2023/02/01 09:50:16;;;;;;;1.77;1.77;;;5.80;98.00;;;;;;5090968;28;20455;-71
2023/02/01 09:52:49;;;;;;;1.77;1.40;;;5.80;98.00;;;;;;5094999;28;20506;-71
2023/02/01 09:55:21;;;;;;;3.10;1.80;;;5.90;98.00;;;;;;5095960;28;20487;-71
2023/02/01 09:57:56;;;;;;;1.10;1.10;;;5.90;98.00;;;;;;5095922;28;20484;-71
2023/02/01 10:00:28;;;;;;;2.63;1.40;;;5.90;98.00;;;;;;5094663;28;20519;-68
2023/02/01 10:02:58;;;;;;;1.40;1.30;;;5.90;98.00;;;;;;5094608;28;20471;-69
2023/02/01 10:05:43;;;;;;;1.30;1.30;;;5.90;98.00;;;;;;5095883;28;20476;-69
2023/02/01 10:08:18;;;;;;;1.47;1.40;;;6.00;98.00;;;;;;5095898;28;20473;-69
2023/02/01 10:10:48;;;;;;;2.40;1.30;;;6.00;98.00;;;;;;5095795;28;20453;-69
2023/02/01 10:13:44;;;;;;;20.23;1.80;;;6.10;98.00;;;;;;5095807;28;20962;-68
2023/02/01 10:16:26;;;;;;;1.90;1.20;;;6.10;98.00;;;;;;5095621;28;20481;-68
2023/02/01 10:19:23;;;;;;;1.20;1.10;;;6.10;98.00;;;;;;5094386;28;20474;-69
2023/02/01 10:22:05;;;;;;;2.60;1.40;;;6.10;98.00;;;;;;5095092;28;21300;-69
2023/02/01 10:24:49;;;;;;;1.60;1.10;;;6.10;98.00;;;;;;5095368;28;20471;-69
2023/02/01 10:27:30;;;;;;;1.87;1.50;;;6.20;98.00;;;;;;5095029;28;20471;-68
2023/02/01 10:30:01;;;;;;;2.50;1.47;;;6.30;98.00;;;;;;5095068;28;20459;-69
2023/02/01 10:32:32;;;;;;;1.77;1.47;;;6.40;98.00;;;;;;5094891;28;20812;-69
2023/02/01 10:35:03;;;;;;;1.57;1.40;;;6.40;98.00;;;;;;5095065;28;20460;-70
2023/02/01 10:37:35;;;;;;;1.33;1.27;;;6.60;98.00;;;;;;5095039;28;20449;-69
2023/02/01 10:40:16;;;;;;;3.70;1.27;;;6.70;98.00;;;;;;5095175;28;20465;-68
2023/02/01 10:42:43;;;;;;;1.67;1.20;;;6.80;98.00;;;;;;5094799;28;20478;-69
2023/02/01 10:45:15;;;;;;;2.03;1.53;;;6.80;98.00;;;;;;5094991;28;20508;-69
2023/02/01 10:47:43;;;;;;;1.40;1.30;;;6.90;98.00;;;;;;5093599;28;20474;-69
2023/02/01 10:50:25;;;;;;;4.60;1.47;;;7.00;98.00;;;;;;5094560;28;20458;-69
2023/02/01 10:52:57;;;;;;;2.10;1.43;;;7.10;98.00;;;;;;5094590;28;20460;-70
2023/02/01 10:55:39;;;;;;;3.37;1.30;;;7.10;98.00;;;;;;5094358;28;20501;-69
2023/02/01 10:58:08;;;;;;;1.40;1.20;;;7.10;98.00;;;;;;5094977;28;20455;-70
2023/02/01 11:00:45;;;;;;;1.83;1.40;;;7.00;98.00;;;;;;5094490;28;20931;-70
2023/02/01 11:03:43;;;;;;;2.40;2.23;;;7.00;98.00;;;;;;5093476;28;20516;-68
2023/02/01 11:06:22;;;;;;;3.60;1.93;;;6.80;98.00;;;;;;5031287;28;20458;-69
2023/02/01 11:08:51;;;;;;;1.20;1.10;;;6.80;98.00;;;;;;5084927;28;20459;-69
2023/02/01 11:11:19;;;;;;;2.20;1.40;;;6.80;98.00;;;;;;5094619;28;20507;-69
2023/02/01 11:13:53;;;;;;;1.70;1.53;;;6.80;98.00;;;;;;5094669;28;20462;-69
2023/02/01 11:16:21;;;;;;;1.53;1.43;;;6.80;98.00;;;;;;5094813;28;20466;-68
2023/02/01 11:18:54;;;;;;;1.37;1.17;;;6.70;98.00;;;;;;5094629;28;20463;-69
2023/02/01 11:21:23;;;;;;;2.83;1.50;;;6.70;98.00;;;;;;5094079;28;20524;-68
2023/02/01 11:23:51;;;;;;;2.90;1.40;;;6.80;98.00;;;;;;5094087;28;20523;-69
2023/02/01 11:26:24;;;;;;;2.13;1.27;;;6.80;98.00;;;;;;5093754;28;20490;-69
2023/02/01 11:28:57;;;;;;;1.70;1.47;;;6.80;98.00;;;;;;5094018;28;20484;-69
2023/02/01 11:31:25;;;;;;;11.07;2.33;;;6.80;98.00;;;;;;5094189;28;20465;-70
2023/02/01 11:33:57;;;;;;;1.40;1.30;;;6.80;98.00;;;;;;5094112;28;20455;-69
2023/02/01 11:36:29;;;;;;;2.40;1.20;;;6.90;98.00;;;;;;5093906;28;20459;-70
2023/02/01 11:39:13;;;;;;;2.13;1.20;;;6.90;98.00;;;;;;5093829;28;20453;-68
2023/02/01 11:41:55;;;;;;;2.80;1.40;;;6.90;98.00;;;;;;5093591;28;20499;-70
2023/02/01 11:44:34;;;;;;;3.27;1.50;;;7.00;98.00;;;;;;5094130;28;20464;-68
2023/02/01 11:47:23;;;;;;;2.07;1.40;;;7.00;98.00;;;;;;5093195;28;20970;-69
2023/02/01 11:49:54;;;;;;;2.23;1.60;;;7.10;98.00;;;;;;5093688;28;20468;-68
2023/02/01 11:52:42;;;;;;;1.50;1.47;;;7.10;98.00;;;;;;5093592;28;20457;-69
2023/02/01 11:55:36;;;;;;;2.90;1.33;;;7.10;98.00;;;;;;5093620;28;20456;-68
2023/02/01 11:58:13;;;;;;;2.23;1.50;;;7.00;98.00;;;;;;5092097;28;20457;-69
2023/02/01 12:01:08;;;;;;;4.80;1.50;;;7.10;98.00;;;;;;5093200;28;20460;-69
2023/02/01 12:04:22;;;;;;;2.43;1.70;;;7.10;98.00;;;;;;5090892;28;20464;-69
2023/02/01 12:06:56;;;;;;;3.30;1.30;;;7.10;98.00;;;;;;5088143;28;20460;-70
2023/02/01 12:09:38;;;;;;;6.90;1.80;;;7.10;98.00;;;;;;5093455;28;20462;-69
2023/02/01 12:12:18;;;;;;;4.83;1.43;;;7.10;98.00;;;;;;5093261;28;20955;-69
2023/02/01 12:15:05;;;;;;;1.80;1.47;;;7.10;98.00;;;;;;5091318;28;20454;-70
2023/02/01 12:17:48;;;;;;;1.70;1.33;;;7.10;98.00;;;;;;5093194;28;20459;-68
2023/02/01 12:20:39;;;;;;;1.60;1.60;;;7.00;98.00;;;;;;5093138;28;20491;-68
2023/02/01 12:23:26;;;;;;;3.50;1.47;;;7.00;98.00;;;;;;5093185;28;20476;-68
2023/02/01 12:26:12;;;;;;;2.23;1.30;;;7.00;98.00;;;;;;5092929;28;20474;-68
2023/02/01 12:29:16;;;;;;;1.93;1.40;;;7.10;98.00;;;;;;5092787;28;20470;-70
2023/02/01 12:32:05;;;;;;;3.10;1.67;;;7.10;98.00;;;;;;5090500;28;20457;-68
2023/02/01 12:34:51;;;;;;;1.40;1.03;;;7.00;98.00;;;;;;5092629;28;20507;-68
2023/02/01 12:37:31;;;;;;;1.97;1.27;;;7.10;98.00;;;;;;5092897;28;20473;-69
2023/02/01 12:40:17;;;;;;;2.33;1.63;;;7.10;98.00;;;;;;5092615;28;20463;-69
2023/02/01 12:42:53;;;;;;;1.40;1.20;;;7.10;98.00;;;;;;5092528;28;20493;-68
2023/02/01 12:45:28;;;;;;;1.40;1.30;;;7.10;98.00;;;;;;5092611;28;20463;-68
2023/02/01 12:47:58;;;;;;;1.30;1.30;;;7.00;98.00;;;;;;5092525;28;20473;-70
2023/02/01 12:50:33;;;;;;;1.20;1.20;;;7.10;98.00;;;;;;5092365;28;20478;-66
2023/02/01 12:53:10;;;;;;;1.27;1.10;;;7.10;98.00;;;;;;5092518;28;20460;-69
2023/02/01 12:55:40;;;;;;;4.23;1.67;;;7.00;98.00;;;;;;5090902;28;20460;-70
2023/02/01 12:58:16;;;;;;;1.73;1.23;;;7.10;98.00;;;;;;5092370;28;20463;-69
2023/02/01 13:00:49;;;;;;;1.37;1.17;;;7.00;98.00;;;;;;5092307;28;20534;-70
2023/02/01 13:03:33;;;;;;;1.20;1.03;;;7.00;98.00;;;;;;5092404;28;20484;-69
2023/02/01 13:06:06;;;;;;;1.60;1.30;;;7.00;98.00;;;;;;5092230;28;20466;-68
2023/02/01 13:08:42;;;;;;;1.53;1.37;;;7.00;98.00;;;;;;5092494;28;20948;-70
2023/02/01 13:11:14;;;;;;;1.20;1.17;;;7.00;98.00;;;;;;5092347;28;20488;-69
2023/02/01 13:13:54;;;;;;;1.67;1.40;;;7.00;98.00;;;;;;5091424;28;20466;-69
2023/02/01 13:16:28;;;;;;;2.10;1.40;;;7.00;98.00;;;;;;5092252;28;20452;-68
2023/02/01 13:19:04;;;;;;;1.97;1.60;;;7.00;98.00;;;;;;5092352;28;20543;-68
2023/02/01 13:21:37;;;;;;;4.10;1.50;;;7.00;98.00;;;;;;5091425;28;20492;-68
2023/02/01 13:24:05;;;;;;;1.43;1.37;;;7.00;98.00;;;;;;5092037;28;20460;-69
2023/02/01 13:26:32;;;;;;;2.77;1.77;;;6.90;98.00;;;;;;5091495;28;20463;-70
2023/02/01 13:29:05;;;;;;;1.30;1.20;;;6.80;98.00;;;;;;5091902;28;20448;-70
2023/02/01 13:31:57;;;;;;;2.10;1.47;;;6.80;98.00;;;;;;5091914;28;20458;-65
2023/02/01 13:34:59;;;;;;;1.20;1.20;;;6.80;98.00;;;;;;5091700;28;20464;-66
2023/02/01 13:37:40;;;;;;;3.00;1.50;;;7.60;98.00;;;;;;5067034;28;20612;-70
2023/02/01 13:40:24;;;;;;;1.10;1.10;;;7.60;98.00;;;;;;5071747;28;20468;-70
2023/02/01 13:42:53;;;;;;;5.43;1.57;;;7.20;98.00;;;;;;5071510;28;20486;-70
2023/02/01 13:45:24;;;;;;;3.43;1.30;;;7.10;98.00;;;;;;5071579;28;20458;-70
2023/02/01 13:47:57;;;;;;;1.87;1.57;;;7.00;98.00;;;;;;5071346;28;20456;-70